sensor_id;sensor_type;location;lat;lon;timestamp;P1;durP1;ratioP1;P2;durP2;ratioP2
48481;SDS011;34284;48.278;16.378;2023-06-04T00:00:05;384.08;;;171.40;;
48481;SDS011;34284;48.278;16.378;2023-06-04T00:02:32;382.60;;;170.23;;
48481;SDS011;34284;48.278;16.378;2023-06-04T00:04:58;396.45;;;165.23;;
48481;SDS011;34284;48.278;16.378;2023-06-04T00:07:24;410.83;;;166.65;;
48481;SDS011;34284;48.278;16.378;2023-06-04T00:09:50;396.75;;;166.73;;
48481;SDS011;34284;48.278;16.378;2023-06-04T00:12:18;399.65;;;167.65;;
48481;SDS011;34284;48.278;16.378;2023-06-04T00:14:45;402.77;;;165.18;;
48481;SDS011;34284;48.278;16.378;2023-06-04T00:17:11;399.52;;;168.73;;
48481;SDS011;34284;48.278;16.378;2023-06-04T00:19:38;395.23;;;168.43;;
48481;SDS011;34284;48.278;16.378;2023-06-04T00:22:05;388.50;;;171.95;;
48481;SDS011;34284;48.278;16.378;2023-06-04T00:24:31;383.25;;;164.85;;
48481;SDS011;34284;48.278;16.378;2023-06-04T00:26:57;383.85;;;168.40;;
48481;SDS011;34284;48.278;16.378;2023-06-04T00:29:24;463.85;;;176.40;;
48481;SDS011;34284;48.278;16.378;2023-06-04T00:31:50;396.95;;;168.75;;
48481;SDS011;34284;48.278;16.378;2023-06-04T00:34:17;390.25;;;167.35;;
48481;SDS011;34284;48.278;16.378;2023-06-04T00:36:43;411.20;;;170.38;;
48481;SDS011;34284;48.278;16.378;2023-06-04T00:39:09;396.00;;;172.57;;
48481;SDS011;34284;48.278;16.378;2023-06-04T00:41:35;381.88;;;164.40;;
48481;SDS011;34284;48.278;16.378;2023-06-04T00:44:01;384.90;;;165.00;;
48481;SDS011;34284;48.278;16.378;2023-06-04T00:46:27;387.20;;;163.65;;
48481;SDS011;34284;48.278;16.378;2023-06-04T00:48:56;378.80;;;163.80;;
48481;SDS011;34284;48.278;16.378;2023-06-04T00:51:22;403.27;;;166.38;;
48481;SDS011;34284;48.278;16.378;2023-06-04T00:53:51;442.00;;;169.50;;
48481;SDS011;34284;48.278;16.378;2023-06-04T00:56:17;385.20;;;163.32;;
48481;SDS011;34284;48.278;16.378;2023-06-04T00:58:44;407.88;;;169.00;;
48481;SDS011;34284;48.278;16.378;2023-06-04T01:01:20;390.30;;;164.30;;
48481;SDS011;34284;48.278;16.378;2023-06-04T01:03:49;408.83;;;163.43;;
48481;SDS011;34284;48.278;16.378;2023-06-04T01:06:21;388.50;;;159.00;;
48481;SDS011;34284;48.278;16.378;2023-06-04T01:08:50;400.52;;;158.32;;
48481;SDS011;34284;48.278;16.378;2023-06-04T01:11:19;407.58;;;162.98;;
48481;SDS011;34284;48.278;16.378;2023-06-04T01:13:55;412.83;;;161.48;;
48481;SDS011;34284;48.278;16.378;2023-06-04T01:16:21;392.48;;;158.05;;
48481;SDS011;34284;48.278;16.378;2023-06-04T01:18:47;414.58;;;167.75;;
48481;SDS011;34284;48.278;16.378;2023-06-04T01:21:16;390.27;;;158.73;;
48481;SDS011;34284;48.278;16.378;2023-06-04T01:23:47;414.80;;;162.88;;
48481;SDS011;34284;48.278;16.378;2023-06-04T01:26:25;394.33;;;158.43;;
48481;SDS011;34284;48.278;16.378;2023-06-04T01:28:52;396.58;;;157.95;;
48481;SDS011;34284;48.278;16.378;2023-06-04T01:31:19;409.88;;;163.32;;
48481;SDS011;34284;48.278;16.378;2023-06-04T01:33:51;398.92;;;153.82;;
48481;SDS011;34284;48.278;16.378;2023-06-04T01:36:17;402.70;;;158.10;;
48481;SDS011;34284;48.278;16.378;2023-06-04T01:38:44;399.52;;;158.80;;
48481;SDS011;34284;48.278;16.378;2023-06-04T01:41:10;376.55;;;151.20;;
48481;SDS011;34284;48.278;16.378;2023-06-04T01:43:36;371.63;;;155.65;;
48481;SDS011;34284;48.278;16.378;2023-06-04T01:46:03;370.17;;;153.45;;
48481;SDS011;34284;48.278;16.378;2023-06-04T01:48:29;379.05;;;156.02;;
48481;SDS011;34284;48.278;16.378;2023-06-04T01:50:57;372.75;;;153.05;;
48481;SDS011;34284;48.278;16.378;2023-06-04T01:53:23;385.33;;;153.48;;
48481;SDS011;34284;48.278;16.378;2023-06-04T01:55:49;376.52;;;154.50;;
48481;SDS011;34284;48.278;16.378;2023-06-04T01:58:16;410.42;;;161.30;;
48481;SDS011;34284;48.278;16.378;2023-06-04T02:00:55;400.38;;;152.60;;
48481;SDS011;34284;48.278;16.378;2023-06-04T02:03:25;386.08;;;157.07;;
48481;SDS011;34284;48.278;16.378;2023-06-04T02:05:51;395.75;;;155.15;;
48481;SDS011;34284;48.278;16.378;2023-06-04T02:08:17;388.58;;;155.15;;
48481;SDS011;34284;48.278;16.378;2023-06-04T02:10:47;399.58;;;158.55;;
48481;SDS011;34284;48.278;16.378;2023-06-04T02:13:13;384.60;;;155.27;;
48481;SDS011;34284;48.278;16.378;2023-06-04T02:15:42;391.13;;;176.27;;
48481;SDS011;34284;48.278;16.378;2023-06-04T02:18:19;377.15;;;153.18;;
48481;SDS011;34284;48.278;16.378;2023-06-04T02:20:47;388.98;;;157.45;;
48481;SDS011;34284;48.278;16.378;2023-06-04T02:23:14;401.85;;;156.70;;
48481;SDS011;34284;48.278;16.378;2023-06-04T02:25:41;384.17;;;154.88;;
48481;SDS011;34284;48.278;16.378;2023-06-04T02:28:09;373.77;;;149.70;;
48481;SDS011;34284;48.278;16.378;2023-06-04T02:30:35;376.30;;;152.70;;
48481;SDS011;34284;48.278;16.378;2023-06-04T02:33:01;368.58;;;150.02;;
48481;SDS011;34284;48.278;16.378;2023-06-04T02:35:29;373.83;;;161.00;;
48481;SDS011;34284;48.278;16.378;2023-06-04T02:37:55;408.35;;;176.25;;
48481;SDS011;34284;48.278;16.378;2023-06-04T02:40:23;395.13;;;161.40;;
48481;SDS011;34284;48.278;16.378;2023-06-04T02:42:49;461.98;;;161.00;;
48481;SDS011;34284;48.278;16.378;2023-06-04T02:45:22;405.33;;;154.27;;
48481;SDS011;34284;48.278;16.378;2023-06-04T02:47:51;380.00;;;150.18;;
48481;SDS011;34284;48.278;16.378;2023-06-04T02:50:20;482.88;;;163.57;;
48481;SDS011;34284;48.278;16.378;2023-06-04T02:52:48;386.58;;;151.27;;
48481;SDS011;34284;48.278;16.378;2023-06-04T02:55:14;400.73;;;154.55;;
48481;SDS011;34284;48.278;16.378;2023-06-04T02:57:43;381.13;;;148.32;;
48481;SDS011;34284;48.278;16.378;2023-06-04T03:00:10;382.27;;;153.75;;
48481;SDS011;34284;48.278;16.378;2023-06-04T03:02:46;369.73;;;151.68;;
48481;SDS011;34284;48.278;16.378;2023-06-04T03:05:14;382.80;;;151.93;;
48481;SDS011;34284;48.278;16.378;2023-06-04T03:07:41;368.42;;;148.60;;
48481;SDS011;34284;48.278;16.378;2023-06-04T03:10:11;372.30;;;151.25;;
48481;SDS011;34284;48.278;16.378;2023-06-04T03:12:43;395.83;;;151.88;;
48481;SDS011;34284;48.278;16.378;2023-06-04T03:15:12;372.90;;;149.85;;
48481;SDS011;34284;48.278;16.378;2023-06-04T03:17:41;376.40;;;152.15;;
48481;SDS011;34284;48.278;16.378;2023-06-04T03:20:09;369.23;;;149.60;;
48481;SDS011;34284;48.278;16.378;2023-06-04T03:22:35;369.95;;;153.00;;
48481;SDS011;34284;48.278;16.378;2023-06-04T03:25:01;389.80;;;151.73;;
48481;SDS011;34284;48.278;16.378;2023-06-04T03:27:28;384.80;;;152.50;;
48481;SDS011;34284;48.278;16.378;2023-06-04T03:29:54;386.23;;;152.32;;
48481;SDS011;34284;48.278;16.378;2023-06-04T03:32:20;393.85;;;155.00;;
48481;SDS011;34284;48.278;16.378;2023-06-04T03:34:46;385.77;;;153.18;;
48481;SDS011;34284;48.278;16.378;2023-06-04T03:37:12;377.90;;;154.35;;
48481;SDS011;34284;48.278;16.378;2023-06-04T03:39:38;379.75;;;155.40;;
48481;SDS011;34284;48.278;16.378;2023-06-04T03:42:04;378.80;;;153.45;;
48481;SDS011;34284;48.278;16.378;2023-06-04T03:44:30;386.67;;;153.93;;
48481;SDS011;34284;48.278;16.378;2023-06-04T03:46:56;386.67;;;153.80;;
48481;SDS011;34284;48.278;16.378;2023-06-04T03:49:23;382.65;;;151.20;;
48481;SDS011;34284;48.278;16.378;2023-06-04T03:51:49;384.13;;;154.18;;
48481;SDS011;34284;48.278;16.378;2023-06-04T03:54:15;383.50;;;155.55;;
48481;SDS011;34284;48.278;16.378;2023-06-04T03:56:42;377.25;;;153.10;;
48481;SDS011;34284;48.278;16.378;2023-06-04T03:59:08;374.23;;;153.88;;
48481;SDS011;34284;48.278;16.378;2023-06-04T04:01:34;375.30;;;154.07;;
48481;SDS011;34284;48.278;16.378;2023-06-04T04:04:01;390.55;;;154.63;;
48481;SDS011;34284;48.278;16.378;2023-06-04T04:06:28;386.83;;;160.38;;
48481;SDS011;34284;48.278;16.378;2023-06-04T04:08:54;405.00;;;162.65;;
48481;SDS011;34284;48.278;16.378;2023-06-04T04:11:20;408.70;;;164.32;;
48481;SDS011;34284;48.278;16.378;2023-06-04T04:13:47;399.90;;;166.27;;
48481;SDS011;34284;48.278;16.378;2023-06-04T04:16:13;388.52;;;165.68;;
48481;SDS011;34284;48.278;16.378;2023-06-04T04:18:40;391.45;;;172.80;;
48481;SDS011;34284;48.278;16.378;2023-06-04T04:21:07;393.52;;;169.50;;
48481;SDS011;34284;48.278;16.378;2023-06-04T04:23:33;391.25;;;171.52;;
48481;SDS011;34284;48.278;16.378;2023-06-04T04:26:00;400.80;;;164.70;;
48481;SDS011;34284;48.278;16.378;2023-06-04T04:28:27;399.42;;;163.63;;
48481;SDS011;34284;48.278;16.378;2023-06-04T04:30:56;410.98;;;171.38;;
48481;SDS011;34284;48.278;16.378;2023-06-04T04:33:23;402.30;;;182.18;;
48481;SDS011;34284;48.278;16.378;2023-06-04T04:35:53;412.10;;;175.75;;
48481;SDS011;34284;48.278;16.378;2023-06-04T04:38:20;425.95;;;176.77;;
48481;SDS011;34284;48.278;16.378;2023-06-04T04:40:51;483.17;;;188.35;;
48481;SDS011;34284;48.278;16.378;2023-06-04T04:43:33;428.02;;;188.23;;
48481;SDS011;34284;48.278;16.378;2023-06-04T04:45:59;442.30;;;185.35;;
48481;SDS011;34284;48.278;16.378;2023-06-04T04:48:25;423.08;;;178.68;;
48481;SDS011;34284;48.278;16.378;2023-06-04T04:50:52;413.38;;;179.70;;
48481;SDS011;34284;48.278;16.378;2023-06-04T04:53:18;421.60;;;186.73;;
48481;SDS011;34284;48.278;16.378;2023-06-04T04:55:44;410.77;;;183.75;;
48481;SDS011;34284;48.278;16.378;2023-06-04T04:58:10;425.67;;;215.57;;
48481;SDS011;34284;48.278;16.378;2023-06-04T05:00:37;422.70;;;201.52;;
48481;SDS011;34284;48.278;16.378;2023-06-04T05:03:03;426.60;;;212.85;;
48481;SDS011;34284;48.278;16.378;2023-06-04T05:05:29;420.58;;;184.35;;
48481;SDS011;34284;48.278;16.378;2023-06-04T05:07:55;420.45;;;193.63;;
48481;SDS011;34284;48.278;16.378;2023-06-04T05:10:21;433.52;;;218.82;;
48481;SDS011;34284;48.278;16.378;2023-06-04T05:12:57;435.70;;;206.68;;
48481;SDS011;34284;48.278;16.378;2023-06-04T05:15:23;436.60;;;212.48;;
48481;SDS011;34284;48.278;16.378;2023-06-04T05:17:49;439.33;;;219.07;;
48481;SDS011;34284;48.278;16.378;2023-06-04T05:20:17;440.20;;;221.50;;
48481;SDS011;34284;48.278;16.378;2023-06-04T05:22:44;438.60;;;220.93;;
48481;SDS011;34284;48.278;16.378;2023-06-04T05:25:10;425.85;;;211.68;;
48481;SDS011;34284;48.278;16.378;2023-06-04T05:27:37;425.65;;;206.32;;
48481;SDS011;34284;48.278;16.378;2023-06-04T05:30:04;417.45;;;195.00;;
48481;SDS011;34284;48.278;16.378;2023-06-04T05:32:31;412.35;;;182.73;;
48481;SDS011;34284;48.278;16.378;2023-06-04T05:34:58;410.45;;;182.50;;
48481;SDS011;34284;48.278;16.378;2023-06-04T05:37:24;432.23;;;191.45;;
48481;SDS011;34284;48.278;16.378;2023-06-04T05:39:55;400.83;;;174.48;;
48481;SDS011;34284;48.278;16.378;2023-06-04T05:42:21;375.80;;;151.95;;
48481;SDS011;34284;48.278;16.378;2023-06-04T05:44:47;359.98;;;150.35;;
48481;SDS011;34284;48.278;16.378;2023-06-04T05:47:13;372.60;;;161.88;;
48481;SDS011;34284;48.278;16.378;2023-06-04T05:49:40;380.17;;;169.40;;
48481;SDS011;34284;48.278;16.378;2023-06-04T05:52:06;389.52;;;177.40;;
48481;SDS011;34284;48.278;16.378;2023-06-04T05:54:32;384.10;;;165.63;;
48481;SDS011;34284;48.278;16.378;2023-06-04T05:56:58;402.63;;;175.68;;
48481;SDS011;34284;48.278;16.378;2023-06-04T05:59:24;398.60;;;171.57;;
48481;SDS011;34284;48.278;16.378;2023-06-04T06:01:50;383.90;;;166.43;;
48481;SDS011;34284;48.278;16.378;2023-06-04T06:04:17;377.67;;;170.70;;
48481;SDS011;34284;48.278;16.378;2023-06-04T06:06:43;365.17;;;157.75;;
48481;SDS011;34284;48.278;16.378;2023-06-04T06:09:12;368.65;;;154.55;;
48481;SDS011;34284;48.278;16.378;2023-06-04T06:11:38;377.15;;;177.48;;
48481;SDS011;34284;48.278;16.378;2023-06-04T06:14:04;366.40;;;165.13;;
48481;SDS011;34284;48.278;16.378;2023-06-04T06:16:30;400.55;;;161.95;;
48481;SDS011;34284;48.278;16.378;2023-06-04T06:18:57;376.70;;;162.32;;
48481;SDS011;34284;48.278;16.378;2023-06-04T06:21:35;379.83;;;164.85;;
48481;SDS011;34284;48.278;16.378;2023-06-04T06:24:01;362.35;;;153.35;;
48481;SDS011;34284;48.278;16.378;2023-06-04T06:26:27;358.65;;;155.25;;
48481;SDS011;34284;48.278;16.378;2023-06-04T06:28:55;367.38;;;160.70;;
48481;SDS011;34284;48.278;16.378;2023-06-04T06:31:27;376.35;;;159.13;;
48481;SDS011;34284;48.278;16.378;2023-06-04T06:33:53;388.90;;;167.57;;
48481;SDS011;34284;48.278;16.378;2023-06-04T06:36:19;373.58;;;173.32;;
48481;SDS011;34284;48.278;16.378;2023-06-04T06:38:48;362.33;;;166.00;;
48481;SDS011;34284;48.278;16.378;2023-06-04T06:41:15;364.23;;;167.38;;
48481;SDS011;34284;48.278;16.378;2023-06-04T06:43:41;366.27;;;165.85;;
48481;SDS011;34284;48.278;16.378;2023-06-04T06:46:07;365.17;;;167.23;;
48481;SDS011;34284;48.278;16.378;2023-06-04T06:48:34;412.98;;;176.93;;
48481;SDS011;34284;48.278;16.378;2023-06-04T06:51:01;391.05;;;164.10;;
48481;SDS011;34284;48.278;16.378;2023-06-04T06:53:27;413.63;;;173.38;;
48481;SDS011;34284;48.278;16.378;2023-06-04T06:55:53;395.23;;;172.45;;
48481;SDS011;34284;48.278;16.378;2023-06-04T06:58:19;375.60;;;171.00;;
48481;SDS011;34284;48.278;16.378;2023-06-04T07:00:48;367.50;;;162.32;;
48481;SDS011;34284;48.278;16.378;2023-06-04T07:03:15;361.95;;;168.77;;
48481;SDS011;34284;48.278;16.378;2023-06-04T07:05:41;362.17;;;172.27;;
48481;SDS011;34284;48.278;16.378;2023-06-04T07:08:07;356.90;;;160.93;;
48481;SDS011;34284;48.278;16.378;2023-06-04T07:10:33;373.58;;;164.93;;
48481;SDS011;34284;48.278;16.378;2023-06-04T07:12:59;369.42;;;166.88;;
48481;SDS011;34284;48.278;16.378;2023-06-04T07:15:25;364.48;;;166.35;;
48481;SDS011;34284;48.278;16.378;2023-06-04T07:17:51;373.42;;;172.25;;
48481;SDS011;34284;48.278;16.378;2023-06-04T07:20:17;357.33;;;163.23;;
48481;SDS011;34284;48.278;16.378;2023-06-04T07:22:43;349.83;;;164.27;;
48481;SDS011;34284;48.278;16.378;2023-06-04T07:25:09;395.70;;;234.30;;
48481;SDS011;34284;48.278;16.378;2023-06-04T07:27:38;411.70;;;175.15;;
48481;SDS011;34284;48.278;16.378;2023-06-04T07:30:05;422.92;;;175.30;;
48481;SDS011;34284;48.278;16.378;2023-06-04T07:32:32;372.50;;;167.18;;
48481;SDS011;34284;48.278;16.378;2023-06-04T07:34:58;373.25;;;167.27;;
48481;SDS011;34284;48.278;16.378;2023-06-04T07:37:25;387.33;;;173.43;;
48481;SDS011;34284;48.278;16.378;2023-06-04T07:39:51;378.13;;;172.02;;
48481;SDS011;34284;48.278;16.378;2023-06-04T07:42:17;358.95;;;166.55;;
48481;SDS011;34284;48.278;16.378;2023-06-04T07:44:46;359.60;;;169.57;;
48481;SDS011;34284;48.278;16.378;2023-06-04T07:47:12;360.50;;;179.05;;
48481;SDS011;34284;48.278;16.378;2023-06-04T07:49:38;370.85;;;175.55;;
48481;SDS011;34284;48.278;16.378;2023-06-04T07:52:04;369.58;;;164.38;;
48481;SDS011;34284;48.278;16.378;2023-06-04T07:54:32;360.58;;;170.75;;
48481;SDS011;34284;48.278;16.378;2023-06-04T07:56:58;373.92;;;176.15;;
48481;SDS011;34284;48.278;16.378;2023-06-04T07:59:24;376.63;;;171.70;;
48481;SDS011;34284;48.278;16.378;2023-06-04T08:01:50;364.63;;;169.70;;
48481;SDS011;34284;48.278;16.378;2023-06-04T08:04:17;360.60;;;175.32;;
48481;SDS011;34284;48.278;16.378;2023-06-04T08:06:43;365.95;;;174.77;;
48481;SDS011;34284;48.278;16.378;2023-06-04T08:09:09;366.63;;;176.07;;
48481;SDS011;34284;48.278;16.378;2023-06-04T08:11:36;420.02;;;178.35;;
48481;SDS011;34284;48.278;16.378;2023-06-04T08:14:02;376.63;;;181.43;;
48481;SDS011;34284;48.278;16.378;2023-06-04T08:16:28;380.92;;;181.82;;
48481;SDS011;34284;48.278;16.378;2023-06-04T08:18:54;373.63;;;180.73;;
48481;SDS011;34284;48.278;16.378;2023-06-04T08:21:27;362.52;;;188.00;;
48481;SDS011;34284;48.278;16.378;2023-06-04T08:23:53;379.47;;;183.60;;
48481;SDS011;34284;48.278;16.378;2023-06-04T08:26:19;365.85;;;190.40;;
48481;SDS011;34284;48.278;16.378;2023-06-04T08:28:49;365.77;;;190.45;;
48481;SDS011;34284;48.278;16.378;2023-06-04T08:31:15;366.52;;;182.63;;
48481;SDS011;34284;48.278;16.378;2023-06-04T08:33:42;367.80;;;188.45;;
48481;SDS011;34284;48.278;16.378;2023-06-04T08:36:08;359.38;;;182.07;;
48481;SDS011;34284;48.278;16.378;2023-06-04T08:38:34;386.77;;;187.48;;
48481;SDS011;34284;48.278;16.378;2023-06-04T08:41:22;401.50;;;189.77;;
48481;SDS011;34284;48.278;16.378;2023-06-04T08:43:51;375.55;;;188.80;;
48481;SDS011;34284;48.278;16.378;2023-06-04T08:46:18;370.17;;;190.48;;
48481;SDS011;34284;48.278;16.378;2023-06-04T08:48:47;364.27;;;189.35;;
48481;SDS011;34284;48.278;16.378;2023-06-04T08:51:14;359.17;;;194.23;;
48481;SDS011;34284;48.278;16.378;2023-06-04T08:53:41;378.88;;;191.02;;
48481;SDS011;34284;48.278;16.378;2023-06-04T08:56:08;419.88;;;199.07;;
48481;SDS011;34284;48.278;16.378;2023-06-04T08:58:35;413.25;;;197.82;;
48481;SDS011;34284;48.278;16.378;2023-06-04T09:01:01;368.35;;;192.70;;
48481;SDS011;34284;48.278;16.378;2023-06-04T09:03:28;365.77;;;193.60;;
48481;SDS011;34284;48.278;16.378;2023-06-04T09:05:58;380.48;;;192.65;;
48481;SDS011;34284;48.278;16.378;2023-06-04T09:08:24;378.20;;;203.93;;
48481;SDS011;34284;48.278;16.378;2023-06-04T09:10:51;373.65;;;202.70;;
48481;SDS011;34284;48.278;16.378;2023-06-04T09:13:18;366.83;;;209.30;;
48481;SDS011;34284;48.278;16.378;2023-06-04T09:15:58;366.42;;;205.13;;
48481;SDS011;34284;48.278;16.378;2023-06-04T09:18:25;388.77;;;210.90;;
48481;SDS011;34284;48.278;16.378;2023-06-04T09:20:59;373.10;;;210.68;;
48481;SDS011;34284;48.278;16.378;2023-06-04T09:26:21;407.10;;;215.50;;
48481;SDS011;34284;48.278;16.378;2023-06-04T09:31:24;389.45;;;203.05;;
48481;SDS011;34284;48.278;16.378;2023-06-04T09:33:51;380.70;;;209.20;;
48481;SDS011;34284;48.278;16.378;2023-06-04T09:36:18;387.38;;;212.20;;
48481;SDS011;34284;48.278;16.378;2023-06-04T09:38:44;377.73;;;204.82;;
48481;SDS011;34284;48.278;16.378;2023-06-04T09:41:14;375.90;;;211.00;;
48481;SDS011;34284;48.278;16.378;2023-06-04T09:43:41;379.00;;;213.88;;
48481;SDS011;34284;48.278;16.378;2023-06-04T09:46:09;400.20;;;205.45;;
48481;SDS011;34284;48.278;16.378;2023-06-04T09:48:36;393.45;;;205.27;;
48481;SDS011;34284;48.278;16.378;2023-06-04T09:51:12;421.55;;;202.48;;
48481;SDS011;34284;48.278;16.378;2023-06-04T09:53:42;378.67;;;206.98;;
48481;SDS011;34284;48.278;16.378;2023-06-04T09:56:21;408.20;;;213.57;;
48481;SDS011;34284;48.278;16.378;2023-06-04T09:58:53;374.13;;;200.23;;
48481;SDS011;34284;48.278;16.378;2023-06-04T10:01:23;388.67;;;215.30;;
48481;SDS011;34284;48.278;16.378;2023-06-04T10:03:54;387.27;;;219.65;;
48481;SDS011;34284;48.278;16.378;2023-06-04T10:06:22;382.20;;;217.80;;
48481;SDS011;34284;48.278;16.378;2023-06-04T10:08:49;393.02;;;220.73;;
48481;SDS011;34284;48.278;16.378;2023-06-04T10:11:23;390.25;;;229.63;;
48481;SDS011;34284;48.278;16.378;2023-06-04T10:13:58;400.63;;;235.63;;
48481;SDS011;34284;48.278;16.378;2023-06-04T10:19:33;418.73;;;232.20;;
48481;SDS011;34284;48.278;16.378;2023-06-04T10:22:02;389.95;;;238.07;;
48481;SDS011;34284;48.278;16.378;2023-06-04T10:24:29;399.05;;;247.70;;
48481;SDS011;34284;48.278;16.378;2023-06-04T10:26:59;401.63;;;242.77;;
48481;SDS011;34284;48.278;16.378;2023-06-04T10:29:25;398.55;;;249.60;;
48481;SDS011;34284;48.278;16.378;2023-06-04T10:31:54;392.83;;;259.05;;
48481;SDS011;34284;48.278;16.378;2023-06-04T10:34:23;390.63;;;249.05;;
48481;SDS011;34284;48.278;16.378;2023-06-04T10:36:52;386.80;;;256.23;;
48481;SDS011;34284;48.278;16.378;2023-06-04T10:39:27;406.02;;;273.33;;
48481;SDS011;34284;48.278;16.378;2023-06-04T10:41:57;400.20;;;269.58;;
48481;SDS011;34284;48.278;16.378;2023-06-04T10:44:24;418.63;;;287.15;;
48481;SDS011;34284;48.278;16.378;2023-06-04T10:46:50;390.15;;;265.48;;
48481;SDS011;34284;48.278;16.378;2023-06-04T10:49:25;418.08;;;289.88;;
48481;SDS011;34284;48.278;16.378;2023-06-04T10:51:51;393.55;;;269.92;;
48481;SDS011;34284;48.278;16.378;2023-06-04T10:54:23;400.95;;;282.88;;
48481;SDS011;34284;48.278;16.378;2023-06-04T10:56:52;395.35;;;277.27;;
48481;SDS011;34284;48.278;16.378;2023-06-04T10:59:18;399.40;;;286.55;;
48481;SDS011;34284;48.278;16.378;2023-06-04T11:01:45;405.55;;;299.52;;
48481;SDS011;34284;48.278;16.378;2023-06-04T11:04:20;412.35;;;306.65;;
48481;SDS011;34284;48.278;16.378;2023-06-04T11:06:47;399.08;;;299.60;;
48481;SDS011;34284;48.278;16.378;2023-06-04T11:09:13;410.67;;;307.23;;
48481;SDS011;34284;48.278;16.378;2023-06-04T11:11:42;414.80;;;318.25;;
48481;SDS011;34284;48.278;16.378;2023-06-04T11:14:11;412.85;;;307.70;;
48481;SDS011;34284;48.278;16.378;2023-06-04T11:16:42;410.45;;;320.10;;
48481;SDS011;34284;48.278;16.378;2023-06-04T11:19:09;428.10;;;341.33;;
48481;SDS011;34284;48.278;16.378;2023-06-04T11:21:35;434.75;;;346.80;;
48481;SDS011;34284;48.278;16.378;2023-06-04T11:24:03;422.02;;;328.02;;
48481;SDS011;34284;48.278;16.378;2023-06-04T11:26:30;426.08;;;343.55;;
48481;SDS011;34284;48.278;16.378;2023-06-04T11:29:00;421.02;;;326.58;;
48481;SDS011;34284;48.278;16.378;2023-06-04T11:31:26;414.45;;;324.10;;
48481;SDS011;34284;48.278;16.378;2023-06-04T11:33:53;417.60;;;325.05;;
48481;SDS011;34284;48.278;16.378;2023-06-04T11:36:22;412.10;;;309.25;;
48481;SDS011;34284;48.278;16.378;2023-06-04T11:38:57;402.65;;;316.80;;
48481;SDS011;34284;48.278;16.378;2023-06-04T11:41:27;407.10;;;311.70;;
48481;SDS011;34284;48.278;16.378;2023-06-04T11:43:53;401.08;;;311.23;;
48481;SDS011;34284;48.278;16.378;2023-06-04T11:46:19;400.77;;;306.95;;
48481;SDS011;34284;48.278;16.378;2023-06-04T11:48:46;419.45;;;315.92;;
48481;SDS011;34284;48.278;16.378;2023-06-04T11:51:12;418.30;;;317.65;;
48481;SDS011;34284;48.278;16.378;2023-06-04T11:53:38;408.83;;;305.20;;
48481;SDS011;34284;48.278;16.378;2023-06-04T11:56:05;409.85;;;309.05;;
48481;SDS011;34284;48.278;16.378;2023-06-04T11:58:33;423.65;;;309.95;;
48481;SDS011;34284;48.278;16.378;2023-06-04T12:00:59;409.67;;;309.48;;
48481;SDS011;34284;48.278;16.378;2023-06-04T12:03:33;405.40;;;315.42;;
48481;SDS011;34284;48.278;16.378;2023-06-04T12:06:08;409.77;;;324.98;;
48481;SDS011;34284;48.278;16.378;2023-06-04T12:08:43;472.75;;;396.58;;
48481;SDS011;34284;48.278;16.378;2023-06-04T12:11:09;414.88;;;325.70;;
48481;SDS011;34284;48.278;16.378;2023-06-04T12:13:38;417.33;;;330.73;;
48481;SDS011;34284;48.278;16.378;2023-06-04T12:16:06;475.75;;;355.70;;
48481;SDS011;34284;48.278;16.378;2023-06-04T12:18:32;432.83;;;350.63;;
48481;SDS011;34284;48.278;16.378;2023-06-04T12:21:00;439.20;;;354.17;;
48481;SDS011;34284;48.278;16.378;2023-06-04T12:23:27;417.58;;;339.10;;
48481;SDS011;34284;48.278;16.378;2023-06-04T12:25:53;421.08;;;337.33;;
48481;SDS011;34284;48.278;16.378;2023-06-04T12:28:19;423.27;;;344.95;;
48481;SDS011;34284;48.278;16.378;2023-06-04T12:30:45;411.27;;;322.77;;
48481;SDS011;34284;48.278;16.378;2023-06-04T12:33:11;413.05;;;321.35;;
48481;SDS011;34284;48.278;16.378;2023-06-04T12:35:37;457.10;;;338.10;;
48481;SDS011;34284;48.278;16.378;2023-06-04T12:38:04;479.23;;;375.88;;
48481;SDS011;34284;48.278;16.378;2023-06-04T12:40:34;438.33;;;342.13;;
48481;SDS011;34284;48.278;16.378;2023-06-04T12:43:00;518.60;;;393.33;;
48481;SDS011;34284;48.278;16.378;2023-06-04T12:45:30;439.90;;;345.40;;
48481;SDS011;34284;48.278;16.378;2023-06-04T12:47:56;415.75;;;326.23;;
48481;SDS011;34284;48.278;16.378;2023-06-04T12:50:24;415.90;;;335.33;;
48481;SDS011;34284;48.278;16.378;2023-06-04T12:52:50;427.75;;;320.17;;
48481;SDS011;34284;48.278;16.378;2023-06-04T12:55:16;452.05;;;343.67;;
48481;SDS011;34284;48.278;16.378;2023-06-04T12:57:46;411.92;;;327.48;;
48481;SDS011;34284;48.278;16.378;2023-06-04T13:00:17;498.13;;;339.88;;
48481;SDS011;34284;48.278;16.378;2023-06-04T13:03:09;452.95;;;323.40;;
48481;SDS011;34284;48.278;16.378;2023-06-04T13:05:37;420.35;;;323.52;;
48481;SDS011;34284;48.278;16.378;2023-06-04T13:08:03;427.25;;;310.38;;
48481;SDS011;34284;48.278;16.378;2023-06-04T13:10:38;462.35;;;330.00;;
48481;SDS011;34284;48.278;16.378;2023-06-04T13:13:07;410.65;;;316.45;;
48481;SDS011;34284;48.278;16.378;2023-06-04T13:15:33;419.60;;;321.45;;
48481;SDS011;34284;48.278;16.378;2023-06-04T13:17:59;418.02;;;326.13;;
48481;SDS011;34284;48.278;16.378;2023-06-04T13:20:25;414.50;;;304.20;;
48481;SDS011;34284;48.278;16.378;2023-06-04T13:22:51;421.33;;;309.70;;
48481;SDS011;34284;48.278;16.378;2023-06-04T13:25:17;419.83;;;300.67;;
48481;SDS011;34284;48.278;16.378;2023-06-04T13:27:44;417.00;;;307.02;;
48481;SDS011;34284;48.278;16.378;2023-06-04T13:30:10;418.40;;;310.85;;
48481;SDS011;34284;48.278;16.378;2023-06-04T13:32:36;430.80;;;330.85;;
48481;SDS011;34284;48.278;16.378;2023-06-04T13:35:03;411.85;;;305.77;;
48481;SDS011;34284;48.278;16.378;2023-06-04T13:37:29;423.65;;;319.50;;
48481;SDS011;34284;48.278;16.378;2023-06-04T13:39:55;418.35;;;319.52;;
48481;SDS011;34284;48.278;16.378;2023-06-04T13:42:21;419.15;;;307.17;;
48481;SDS011;34284;48.278;16.378;2023-06-04T13:44:47;416.10;;;320.63;;
48481;SDS011;34284;48.278;16.378;2023-06-04T13:47:13;423.30;;;307.92;;
48481;SDS011;34284;48.278;16.378;2023-06-04T13:49:39;429.58;;;315.42;;
48481;SDS011;34284;48.278;16.378;2023-06-04T13:52:05;432.33;;;312.50;;
48481;SDS011;34284;48.278;16.378;2023-06-04T13:54:31;434.80;;;331.92;;